Metar del Interior

METAR SGME 062100Z 11005KT 9999 FEW040 42/20 Q1002=
METAR SGPJ 062100Z 34010KT 9999 FEW027 SCT200 30/19 Q1010=
METAR SGPC 062100Z 05002KT 9999 FEW033 BKN200 36/12 Q1004=
METAR SGCO 062100Z 27003KT 9999 FEW033 37/21 Q1005=
METAR SGSP 062100Z 09002KT 9999 FEW033 35/22 Q1004=
METAR SGGR 062100Z 14006KT 9999 FEW033 33/21 Q1004=
METAR SGPI 062100Z NIL=
METAR SGSJ 062100Z NIL=

TAF

TAF SGAS 052153Z 0600/0700 VRB05KT CAVOK TX37/0619Z TN24/0610Z BECMG 0615/0619 09006KT 9999 BKN027=
TAF SGES 052153Z 0600/0700 09007KT 9999 SCT027 TX34/0619Z TN23/0610Z BECMG 0615/0617 9999 BKN030 PROB30 0618/0620 8000 SHRA BKN020 FEW040TCU=
TAF SGCO 052153Z 0600/0700 09008KT 9999 SCT027 TX37/0619Z TN23/0610Z BECMG 0614/0616 9999 BKN027 PROB40 0618/0621 8000 TS SHRA BKN027 FEW040CB=
TAF SGEN 052153Z 0600/0700 14003KT CAVOK TX35/0619Z TN22/0610Z BECMG 0614/0616 9999 BKN033 PROB30 0619/0621 8000 SHRA BKN027 FEW040TCU=

La siguiente información es orientativa, no constituyendo documentación de vuelo. Para disponer de la misma se deberá solicitar a la Oficina Vigilancia Meteorológica (OVM) / Oficina ARO/AIS (Aeronautical Report Office/Aeronautical Information Service) del aeródromo de salida. Asimismo la Dirección de Meteorología e Hidrología no se responsabiliza por los perjuicios que pudieran ocasionarse a los "usuarios" y/o a terceros y/o a bienes, debido a las acciones o decisiones adoptadas o dejadas de adoptar en función de la información meteorológica suministrada.